createdAt,value
2022-10-24T00:00:58.804Z,9.47
2022-10-24T00:04:00.494Z,9.41
2022-10-24T00:07:02.351Z,9.35
2022-10-24T00:10:04.481Z,9.35
2022-10-24T00:13:06.963Z,9.44
2022-10-24T00:16:08.594Z,9.51
2022-10-24T00:19:10.229Z,9.56
2022-10-24T00:22:11.721Z,9.68
2022-10-24T00:25:13.289Z,9.77
2022-10-24T00:28:14.831Z,9.84
2022-10-24T00:31:17.116Z,9.86
2022-10-24T00:34:18.653Z,9.89
2022-10-24T00:40:26.661Z,9.99
2022-10-24T00:43:28.390Z,10.01
2022-10-24T00:46:29.953Z,10.07
2022-10-24T00:49:38.463Z,10.06
2022-10-24T00:52:43.579Z,10.08
2022-10-24T00:55:45.973Z,10.02
2022-10-24T00:58:47.583Z,10.10
2022-10-24T01:01:49.333Z,10.16
2022-10-24T01:04:50.897Z,10.19
2022-10-24T01:07:58.554Z,10.18
2022-10-24T01:11:03.178Z,10.09
2022-10-24T01:14:04.821Z,9.91
2022-10-24T01:17:29.644Z,9.84
2022-10-24T01:20:31.508Z,9.79
2022-10-24T01:23:40.334Z,9.75
2022-10-24T01:26:58.347Z,9.68
2022-10-24T01:30:09.240Z,9.48
2022-10-24T01:33:15.986Z,9.39
2022-10-24T01:36:19.879Z,9.33
2022-10-24T01:39:21.446Z,9.32
2022-10-24T01:42:23.024Z,9.26
2022-10-24T01:45:26.426Z,9.24
2022-10-24T01:48:28.401Z,9.21
2022-10-24T01:51:29.951Z,9.24
2022-10-24T01:54:31.481Z,9.33
2022-10-24T01:57:33.504Z,9.40
2022-10-24T02:00:35.283Z,9.45
2022-10-24T02:03:47.855Z,9.44
2022-10-24T02:06:49.358Z,9.44
2022-10-24T02:09:53.359Z,9.44
2022-10-24T02:13:02.651Z,9.50
2022-10-24T02:16:04.277Z,9.52
2022-10-24T02:19:05.794Z,9.53
2022-10-24T02:22:22.523Z,9.55
2022-10-24T02:25:43.109Z,9.57
2022-10-24T02:28:45.636Z,9.62
2022-10-24T02:31:51.325Z,9.59
2022-10-24T02:34:52.829Z,9.56
2022-10-24T02:37:55.598Z,9.51
2022-10-24T02:40:57.243Z,9.50
2022-10-24T02:43:58.782Z,9.49
2022-10-24T02:47:00.898Z,9.48
2022-10-24T02:50:02.563Z,9.40
2022-10-24T02:53:04.356Z,9.40
2022-10-24T02:56:06.030Z,9.38
2022-10-24T03:02:14.069Z,9.38
2022-10-24T03:05:15.621Z,9.32
2022-10-24T03:08:17.183Z,9.24
2022-10-24T03:11:18.780Z,9.14
2022-10-24T03:14:20.288Z,9.03
2022-10-24T03:17:22.031Z,8.93
2022-10-24T03:20:24.652Z,8.79
2022-10-24T03:23:28.698Z,8.66
2022-10-24T03:26:30.241Z,8.60
2022-10-24T03:29:31.795Z,8.53
2022-10-24T03:32:34.467Z,8.46
2022-10-24T03:35:37.149Z,8.42
2022-10-24T03:38:38.645Z,8.36
2022-10-24T03:41:40.245Z,8.27
2022-10-24T03:44:41.776Z,8.15
2022-10-24T03:47:43.339Z,8.05
2022-10-24T03:50:44.892Z,8.01
2022-10-24T03:53:46.557Z,8.10
2022-10-24T03:56:49.374Z,8.13
2022-10-24T03:59:51.065Z,8.25
2022-10-24T04:02:52.606Z,8.29
2022-10-24T04:05:54.267Z,8.36
2022-10-24T04:08:57.089Z,8.44
2022-10-24T04:11:58.662Z,8.60
2022-10-24T04:15:03.935Z,8.73
2022-10-24T04:18:08.276Z,8.84
2022-10-24T04:21:09.972Z,8.91
2022-10-24T04:24:11.922Z,9.03
2022-10-24T04:27:13.505Z,9.19
2022-10-24T04:30:16.495Z,9.28
2022-10-24T04:33:18.440Z,9.34
2022-10-24T04:36:21.108Z,9.29
2022-10-24T04:39:22.632Z,9.43
2022-10-24T04:42:24.451Z,9.60
2022-10-24T04:45:25.988Z,9.38
2022-10-24T04:48:27.514Z,9.04
2022-10-24T04:51:29.046Z,8.87
2022-10-24T04:54:30.643Z,8.82
2022-10-24T04:57:32.153Z,8.83
2022-10-24T05:00:33.706Z,8.81
2022-10-24T05:03:35.356Z,8.82
2022-10-24T05:06:39.227Z,8.88
2022-10-24T05:09:42.973Z,8.96
2022-10-24T05:12:44.810Z,9.04
2022-10-24T05:15:46.693Z,9.05
2022-10-24T05:18:48.248Z,8.77
2022-10-24T05:21:49.785Z,8.60
2022-10-24T05:24:51.394Z,8.75
2022-10-24T05:27:52.892Z,8.63
2022-10-24T05:30:54.418Z,8.55
2022-10-24T05:33:55.998Z,8.58
2022-10-24T05:36:57.580Z,8.59
2022-10-24T05:39:59.108Z,8.64
2022-10-24T05:43:00.659Z,8.67
2022-10-24T05:46:02.257Z,8.65
2022-10-24T05:49:03.861Z,8.71
2022-10-24T05:52:05.436Z,8.76
2022-10-24T05:55:08.219Z,8.86
2022-10-24T05:58:10.228Z,8.73
2022-10-24T06:01:11.877Z,8.70
2022-10-24T06:04:13.959Z,8.68
2022-10-24T06:07:15.757Z,8.63
2022-10-24T06:10:17.346Z,8.65
2022-10-24T06:13:19.031Z,8.91
2022-10-24T06:16:20.651Z,9.20
2022-10-24T06:19:22.357Z,9.42
2022-10-24T06:22:29.691Z,9.61
2022-10-24T06:25:31.296Z,9.60
2022-10-24T06:28:32.860Z,9.55
2022-10-24T06:31:35.760Z,9.45
2022-10-24T06:34:37.328Z,9.40
2022-10-24T06:37:40.220Z,9.32
2022-10-24T06:40:43.586Z,9.23
2022-10-24T06:43:45.350Z,9.12
2022-10-24T06:46:46.965Z,9.02
2022-10-24T06:49:48.621Z,8.96
2022-10-24T06:52:50.144Z,8.86
2022-10-24T06:55:54.213Z,8.74
2022-10-24T06:58:56.150Z,8.69
2022-10-24T07:02:03.272Z,8.68
2022-10-24T07:05:11.456Z,8.76
2022-10-24T07:08:15.759Z,8.82
2022-10-24T07:11:17.432Z,8.74
2022-10-24T07:14:19.065Z,8.61
2022-10-24T07:17:21.021Z,8.58
2022-10-24T07:20:22.641Z,8.55
2022-10-24T07:23:24.149Z,8.48
2022-10-24T07:26:26.265Z,8.42
2022-10-24T07:29:27.917Z,8.35
2022-10-24T07:32:29.626Z,8.32
2022-10-24T07:35:31.259Z,8.35
2022-10-24T07:38:32.846Z,8.43
2022-10-24T07:41:36.730Z,8.68
2022-10-24T07:44:38.288Z,8.89
2022-10-24T07:47:39.792Z,9.03
2022-10-24T07:50:42.610Z,9.16
2022-10-24T07:53:44.385Z,9.28
2022-10-24T07:56:46.018Z,9.37
2022-10-24T07:59:47.632Z,9.44
2022-10-24T08:05:56.448Z,9.58
2022-10-24T08:08:58.209Z,9.65
2022-10-24T08:11:59.790Z,9.77
2022-10-24T08:15:01.374Z,9.87
2022-10-24T08:18:02.948Z,9.94
2022-10-24T08:21:05.593Z,10.01
2022-10-24T08:24:07.235Z,10.11
2022-10-24T08:27:08.900Z,10.20
2022-10-24T08:30:10.673Z,10.31
2022-10-24T08:33:15.992Z,10.31
2022-10-24T08:36:22.594Z,10.34
2022-10-24T08:39:24.320Z,10.36
2022-10-24T08:42:25.870Z,10.35
2022-10-24T08:45:34.413Z,10.27
2022-10-24T08:48:40.986Z,10.25
2022-10-24T08:51:43.909Z,10.19
2022-10-24T08:54:45.456Z,10.18
2022-10-24T08:57:52.259Z,10.14
2022-10-24T09:00:54.707Z,10.12
2022-10-24T09:03:57.523Z,10.14
2022-10-24T09:06:59.455Z,10.15
2022-10-24T09:10:04.032Z,10.18
2022-10-24T09:13:10.521Z,10.25
2022-10-24T09:16:15.168Z,10.34
2022-10-24T09:19:21.385Z,10.42
2022-10-24T09:22:23.493Z,10.54
2022-10-24T09:25:32.174Z,10.88
2022-10-24T09:28:34.222Z,11.07
2022-10-24T09:31:35.714Z,11.25
2022-10-24T09:34:37.213Z,11.08
2022-10-24T09:37:44.153Z,11.12
2022-10-24T09:40:52.875Z,11.14
2022-10-24T09:43:56.162Z,11.12
2022-10-24T09:47:01.088Z,11.15
2022-10-24T09:50:02.591Z,11.17
2022-10-24T09:53:04.283Z,11.24
2022-10-24T09:56:12.937Z,11.30
2022-10-24T09:59:34.344Z,11.51
2022-10-24T10:02:36.665Z,11.74
2022-10-24T10:05:42.418Z,11.88
2022-10-24T10:08:49.291Z,11.89
2022-10-24T10:12:02.621Z,12.00
2022-10-24T10:15:17.536Z,12.00
2022-10-24T10:18:22.195Z,12.00
2022-10-24T10:21:25.123Z,11.97
2022-10-24T10:24:26.669Z,12.04
2022-10-24T10:27:36.026Z,12.08
2022-10-24T10:30:37.600Z,12.21
2022-10-24T10:33:39.142Z,12.25
2022-10-24T10:36:55.864Z,12.30
2022-10-24T10:40:03.437Z,12.31
2022-10-24T10:43:07.768Z,12.47
2022-10-24T10:46:13.218Z,12.66
2022-10-24T10:49:30.731Z,12.75
2022-10-24T10:52:33.473Z,12.92
2022-10-24T10:55:38.570Z,12.86
2022-10-24T10:59:03.344Z,12.99
2022-10-24T11:02:16.949Z,12.94
2022-10-24T11:05:37.187Z,12.89
2022-10-24T11:08:48.058Z,12.89
2022-10-24T11:11:55.821Z,12.93
2022-10-24T11:15:08.390Z,12.80
2022-10-24T11:18:19.281Z,12.81
2022-10-24T11:21:21.858Z,12.74
2022-10-24T11:24:23.453Z,12.90
2022-10-24T11:27:45.313Z,12.99
2022-10-24T11:31:00.347Z,12.96
2022-10-24T11:34:20.612Z,12.97
2022-10-24T11:37:27.940Z,12.88
2022-10-24T11:40:30.399Z,13.01
2022-10-24T11:43:36.651Z,13.00
2022-10-24T11:46:40.741Z,13.01
2022-10-24T11:49:43.852Z,13.15
2022-10-24T11:52:47.921Z,13.50
2022-10-24T11:56:12.035Z,13.82
2022-10-24T11:59:16.309Z,13.96
2022-10-24T12:02:40.585Z,14.06
2022-10-24T12:05:42.362Z,13.99
2022-10-24T12:08:56.270Z,14.09
2022-10-24T12:12:06.909Z,14.06
2022-10-24T12:15:27.166Z,14.06
2022-10-24T12:18:30.433Z,13.89
2022-10-24T12:21:36.508Z,13.74
2022-10-24T12:24:41.153Z,13.77
2022-10-24T12:27:42.744Z,14.18
2022-10-24T12:30:44.491Z,14.26
2022-10-24T12:33:47.313Z,14.42
2022-10-24T12:37:21.336Z,14.65
2022-10-24T12:40:41.570Z,14.59
2022-10-24T12:43:44.362Z,14.74
2022-10-24T12:46:45.859Z,14.58
2022-10-24T12:49:51.271Z,15.15
2022-10-24T12:52:56.591Z,14.78
2022-10-24T12:55:58.210Z,14.54
2022-10-24T12:59:23.123Z,13.99
2022-10-24T13:02:30.914Z,13.71
2022-10-24T13:05:52.797Z,13.51
2022-10-24T13:08:57.720Z,13.37
2022-10-24T13:12:18.113Z,13.47
2022-10-24T13:15:29.946Z,13.93
2022-10-24T13:18:50.314Z,13.80
2022-10-24T13:21:53.061Z,13.62
2022-10-24T13:24:54.621Z,13.83
2022-10-24T13:28:14.979Z,13.67
2022-10-24T13:31:16.542Z,13.95
2022-10-24T13:34:18.217Z,14.25
2022-10-24T13:37:34.108Z,14.47
2022-10-24T13:40:35.764Z,14.91
2022-10-24T13:43:42.396Z,14.65
2022-10-24T13:46:46.896Z,14.41
2022-10-24T13:49:50.573Z,13.91
2022-10-24T13:52:54.917Z,13.91
2022-10-24T13:55:56.473Z,13.64
2022-10-24T13:58:58.119Z,13.59
2022-10-24T14:02:01.030Z,13.61
2022-10-24T14:05:02.629Z,13.60
2022-10-24T14:08:04.594Z,13.61
2022-10-24T14:11:06.873Z,13.61
2022-10-24T14:14:14.896Z,13.58
2022-10-24T14:17:23.535Z,13.48
2022-10-24T14:20:30.733Z,13.39
2022-10-24T14:23:37.058Z,13.66
2022-10-24T14:26:39.069Z,13.71
2022-10-24T14:29:40.883Z,14.46
2022-10-24T14:32:42.418Z,16.11
2022-10-24T14:35:43.974Z,15.17
2022-10-24T14:41:47.008Z,13.80
2022-10-24T14:44:49.586Z,13.60
2022-10-24T14:47:52.774Z,13.68
2022-10-24T14:50:54.266Z,14.23
2022-10-24T14:53:58.850Z,14.77
2022-10-24T14:57:01.015Z,14.69
2022-10-24T15:00:07.608Z,13.78
2022-10-24T15:03:09.469Z,13.64
2022-10-24T15:06:12.514Z,13.97
2022-10-24T15:09:17.420Z,14.55
2022-10-24T15:12:24.086Z,15.81
2022-10-24T15:15:25.916Z,16.01
2022-10-24T15:18:38.014Z,16.32
2022-10-24T15:21:40.681Z,16.83
2022-10-24T15:24:44.362Z,16.40
2022-10-24T15:27:46.444Z,16.47
2022-10-24T15:30:48.072Z,16.40
2022-10-24T15:33:49.621Z,15.48
2022-10-24T15:36:51.794Z,14.92
2022-10-24T15:39:53.947Z,15.09
2022-10-24T15:42:55.685Z,15.40
2022-10-24T15:45:57.665Z,15.26
2022-10-24T15:48:59.230Z,14.97
2022-10-24T15:52:00.888Z,14.40
2022-10-24T15:55:02.902Z,15.07
2022-10-24T15:58:04.506Z,14.99
2022-10-24T16:01:06.519Z,15.01
2022-10-24T16:04:08.528Z,14.33
2022-10-24T16:07:10.824Z,13.46
2022-10-24T16:10:13.837Z,13.06
2022-10-24T16:13:15.746Z,12.86
2022-10-24T16:16:17.378Z,12.54
2022-10-24T16:19:19.154Z,12.33
2022-10-24T16:22:20.685Z,12.20
2022-10-24T16:25:26.273Z,12.10
2022-10-24T16:28:28.904Z,12.00
2022-10-24T16:31:31.124Z,11.90
2022-10-24T16:34:32.914Z,11.83
2022-10-24T16:37:34.602Z,11.68
2022-10-24T16:43:49.139Z,11.47
2022-10-24T16:46:52.729Z,11.42
2022-10-24T16:49:58.034Z,11.41
2022-10-24T16:53:00.702Z,11.39
2022-10-24T16:56:02.254Z,11.44
2022-10-24T16:59:03.849Z,11.40
2022-10-24T17:02:05.567Z,11.38
2022-10-24T17:05:07.684Z,11.35
2022-10-24T17:08:09.259Z,11.25
2022-10-24T17:11:32.359Z,11.15
2022-10-24T17:14:33.389Z,10.98
2022-10-24T17:17:35.191Z,10.88
2022-10-24T17:20:36.822Z,10.82
2022-10-24T17:23:38.419Z,10.78
2022-10-24T17:26:40.586Z,10.75
2022-10-24T17:29:42.384Z,10.67
2022-10-24T17:32:44.285Z,10.58
2022-10-24T17:35:48.303Z,10.44
2022-10-24T17:38:56.257Z,10.34
2022-10-24T17:41:57.860Z,10.28
2022-10-24T17:44:59.476Z,10.20
2022-10-24T17:48:01.072Z,10.09
2022-10-24T17:51:02.923Z,10.05
2022-10-24T17:54:05.901Z,9.96
2022-10-24T17:57:07.846Z,9.84
2022-10-24T18:00:09.904Z,9.88
2022-10-24T18:03:12.811Z,9.92
2022-10-24T18:06:14.448Z,9.85
2022-10-24T18:09:16.038Z,9.82
2022-10-24T18:12:17.557Z,9.76
2022-10-24T18:15:20.197Z,9.79
2022-10-24T18:18:22.305Z,9.80
2022-10-24T18:21:25.050Z,9.82
2022-10-24T18:24:26.572Z,9.78
2022-10-24T18:27:28.252Z,9.78
2022-10-24T18:30:29.920Z,9.73
2022-10-24T18:33:32.281Z,9.69
2022-10-24T18:36:33.872Z,9.57
2022-10-24T18:39:35.401Z,9.51
2022-10-24T18:42:43.720Z,9.36
2022-10-24T18:45:46.766Z,9.35
2022-10-24T18:48:48.632Z,9.29
2022-10-24T18:52:08.953Z,9.31
2022-10-24T18:55:20.872Z,9.41
2022-10-24T18:58:22.477Z,9.49
2022-10-24T19:01:44.336Z,9.44
2022-10-24T19:04:46.993Z,9.33
2022-10-24T19:07:49.369Z,9.23
2022-10-24T19:10:56.148Z,8.99
2022-10-24T19:13:58.031Z,8.83
2022-10-24T19:16:59.716Z,8.75
2022-10-24T19:20:01.366Z,8.68
2022-10-24T19:23:06.406Z,8.70
2022-10-24T19:26:13.157Z,8.75
2022-10-24T19:29:14.750Z,8.92
2022-10-24T19:32:16.374Z,8.92
2022-10-24T19:35:18.758Z,8.86
2022-10-24T19:38:20.633Z,8.87
2022-10-24T19:41:22.324Z,8.79
2022-10-24T19:44:24.813Z,8.78
2022-10-24T19:47:26.474Z,8.68
2022-10-24T19:50:28.064Z,8.94
2022-10-24T19:53:32.474Z,9.15
2022-10-24T19:56:33.985Z,9.26
2022-10-24T19:59:36.390Z,9.70
2022-10-24T20:02:37.961Z,9.89
2022-10-24T20:05:41.247Z,10.06
2022-10-24T20:08:42.852Z,10.04
2022-10-24T20:11:44.404Z,10.02
2022-10-24T20:14:45.928Z,10.16
2022-10-24T20:17:47.497Z,10.20
2022-10-24T20:20:50.082Z,10.25
2022-10-24T20:23:51.970Z,10.26
2022-10-24T20:26:53.569Z,10.20
2022-10-24T20:29:55.159Z,10.23
2022-10-24T20:32:56.683Z,10.25
2022-10-24T20:35:59.172Z,10.37
2022-10-24T20:39:01.493Z,10.39
2022-10-24T20:42:03.474Z,10.34
2022-10-24T20:45:05.283Z,10.29
2022-10-24T20:48:06.965Z,10.24
2022-10-24T20:51:12.479Z,10.13
2022-10-24T20:54:14.032Z,10.03
2022-10-24T20:57:15.585Z,9.98
2022-10-24T21:00:18.302Z,9.92
2022-10-24T21:03:20.161Z,9.89
2022-10-24T21:06:25.377Z,9.90
2022-10-24T21:09:26.887Z,9.89
2022-10-24T21:12:28.506Z,9.86
2022-10-24T21:15:35.091Z,9.81
2022-10-24T21:18:37.624Z,9.81
2022-10-24T21:21:39.297Z,9.79
2022-10-24T21:24:40.899Z,9.77
2022-10-24T21:27:42.439Z,9.78
2022-10-24T21:30:43.973Z,9.76
2022-10-24T21:33:45.507Z,9.76
2022-10-24T21:36:47.170Z,9.74
2022-10-24T21:39:48.682Z,9.83
2022-10-24T21:42:50.336Z,9.85
2022-10-24T21:45:51.947Z,9.87
2022-10-24T21:48:54.555Z,9.86
2022-10-24T21:51:56.078Z,9.83
2022-10-24T21:54:57.576Z,9.75
2022-10-24T21:57:59.097Z,9.71
2022-10-24T22:01:00.752Z,9.64
2022-10-24T22:04:02.466Z,9.57
2022-10-24T22:07:06.019Z,9.55
2022-10-24T22:10:07.898Z,9.52
2022-10-24T22:13:09.422Z,9.52
2022-10-24T22:16:11.671Z,9.50
2022-10-24T22:19:13.499Z,9.45
2022-10-24T22:22:15.414Z,9.36
2022-10-24T22:25:16.927Z,9.27
2022-10-24T22:28:18.575Z,9.24
2022-10-24T22:31:20.326Z,9.18
2022-10-24T22:34:23.076Z,9.15
2022-10-24T22:37:24.987Z,9.11
2022-10-24T22:40:27.904Z,9.10
2022-10-24T22:43:29.713Z,9.05
2022-10-24T22:46:46.778Z,8.96
2022-10-24T22:49:51.413Z,8.88
2022-10-24T22:52:53.052Z,8.89
2022-10-24T22:55:54.642Z,8.90
2022-10-24T22:58:56.361Z,8.91
2022-10-24T23:02:04.117Z,8.91
2022-10-24T23:05:06.517Z,8.99
2022-10-24T23:08:09.748Z,9.08
2022-10-24T23:11:11.762Z,9.12
2022-10-24T23:14:13.609Z,9.07
2022-10-24T23:17:22.761Z,9.01
2022-10-24T23:20:27.692Z,8.94
2022-10-24T23:23:29.844Z,8.89
2022-10-24T23:26:49.859Z,8.88
2022-10-24T23:29:51.757Z,8.88
2022-10-24T23:32:53.437Z,8.91
2022-10-24T23:35:58.710Z,8.91
2022-10-24T23:39:00.535Z,8.87
2022-10-24T23:42:02.492Z,8.83
2022-10-24T23:45:04.450Z,8.82
2022-10-24T23:48:13.631Z,8.83
2022-10-24T23:51:17.940Z,8.82
2022-10-24T23:54:19.801Z,8.82
2022-10-24T23:57:21.492Z,8.69
